createdAt,value
2022-12-13T00:00:02.252Z,-5.40
2022-12-13T00:01:16.285Z,-5.50
2022-12-13T00:02:18.312Z,-5.60
2022-12-13T00:03:19.830Z,-5.60
2022-12-13T00:04:24.348Z,-5.60
2022-12-13T00:05:26.165Z,-5.60
2022-12-13T00:06:28.905Z,-5.60
2022-12-13T00:07:30.337Z,-5.60
2022-12-13T00:08:31.835Z,-5.60
2022-12-13T00:09:33.365Z,-5.60
2022-12-13T00:10:34.772Z,-5.60
2022-12-13T00:11:36.424Z,-5.50
2022-12-13T00:12:37.865Z,-5.40
2022-12-13T00:13:40.547Z,-5.40
2022-12-13T00:14:42.000Z,-5.50
2022-12-13T00:15:43.577Z,-5.50
2022-12-13T00:16:49.231Z,-5.50
2022-12-13T00:17:50.689Z,-5.50
2022-12-13T00:18:56.016Z,-5.50
2022-12-13T00:19:57.518Z,-5.50
2022-12-13T00:20:59.147Z,-5.50
2022-12-13T00:22:00.585Z,-5.50
2022-12-13T00:23:01.982Z,-5.50
2022-12-13T00:24:07.341Z,-5.50
2022-12-13T00:25:08.961Z,-5.50
2022-12-13T00:26:14.481Z,-5.50
2022-12-13T00:27:16.381Z,-5.50
2022-12-13T00:28:18.315Z,-5.50
2022-12-13T00:29:20.209Z,-5.50
2022-12-13T00:30:21.615Z,-5.50
2022-12-13T00:31:58.289Z,-5.60
2022-12-13T00:32:46.357Z,-5.50
2022-12-13T00:33:49.525Z,-5.50
2022-12-13T00:34:51.021Z,-5.50
2022-12-13T00:35:52.663Z,-5.60
2022-12-13T00:36:54.846Z,-5.60
2022-12-13T00:37:56.485Z,-5.60
2022-12-13T00:39:01.035Z,-5.70
2022-12-13T00:40:02.471Z,-5.70
2022-12-13T00:41:20.334Z,-5.70
2022-12-13T00:42:21.731Z,-5.70
2022-12-13T00:43:23.151Z,-5.70
2022-12-13T00:44:24.964Z,-5.80
2022-12-13T00:45:26.393Z,-5.80
2022-12-13T00:46:29.131Z,-5.80
2022-12-13T00:47:30.629Z,-5.80
2022-12-13T00:48:32.205Z,-5.80
2022-12-13T00:49:33.581Z,-5.70
2022-12-13T00:50:35.705Z,-5.80
2022-12-13T00:51:37.710Z,-5.80
2022-12-13T00:52:39.228Z,-5.80
2022-12-13T00:53:40.813Z,-5.80
2022-12-13T00:54:42.489Z,-5.80
2022-12-13T00:55:43.963Z,-5.90
2022-12-13T00:56:45.382Z,-5.80
2022-12-13T00:57:46.753Z,-5.80
2022-12-13T00:58:52.122Z,-5.80
2022-12-13T00:59:54.378Z,-5.70
2022-12-13T01:01:04.034Z,-5.60
2022-12-13T01:02:05.476Z,-5.60
2022-12-13T01:03:20.588Z,-5.60
2022-12-13T01:04:22.159Z,-5.70
2022-12-13T01:05:47.525Z,-5.60
2022-12-13T01:06:49.651Z,-5.70
2022-12-13T01:07:51.345Z,-5.70
2022-12-13T01:08:53.144Z,-5.60
2022-12-13T01:09:54.621Z,-5.70
2022-12-13T01:10:56.201Z,-5.70
2022-12-13T01:12:02.236Z,-5.70
2022-12-13T01:13:03.892Z,-5.70
2022-12-13T01:14:05.287Z,-5.70
2022-12-13T01:15:07.438Z,-5.80
2022-12-13T01:16:10.759Z,-5.80
2022-12-13T01:17:12.207Z,-5.70
2022-12-13T01:18:18.147Z,-5.70
2022-12-13T01:19:19.655Z,-5.80
2022-12-13T01:20:21.154Z,-5.70
2022-12-13T01:21:22.541Z,-5.70
2022-12-13T01:22:23.983Z,-5.70
2022-12-13T01:23:26.385Z,-5.70
2022-12-13T01:24:29.711Z,-5.60
2022-12-13T01:25:33.472Z,-5.70
2022-12-13T01:26:35.245Z,-5.70
2022-12-13T01:27:36.865Z,-5.60
2022-12-13T01:28:38.684Z,-5.60
2022-12-13T01:29:40.174Z,-5.60
2022-12-13T01:30:41.862Z,-5.60
2022-12-13T01:31:43.572Z,-5.70
2022-12-13T01:32:45.685Z,-5.50
2022-12-13T01:33:47.588Z,-5.50
2022-12-13T01:34:48.972Z,-5.50
2022-12-13T01:35:50.480Z,-5.50
2022-12-13T01:36:52.133Z,-5.50
2022-12-13T01:37:59.726Z,-5.60
2022-12-13T01:39:01.481Z,-5.60
2022-12-13T01:40:16.537Z,-5.70
2022-12-13T01:41:20.656Z,-5.70
2022-12-13T01:42:29.561Z,-5.60
2022-12-13T01:43:36.817Z,-5.60
2022-12-13T01:44:56.041Z,-5.60
2022-12-13T01:45:57.950Z,-5.70
2022-12-13T01:47:00.976Z,-5.70
2022-12-13T01:48:05.471Z,-5.60
2022-12-13T01:49:19.301Z,-5.60
2022-12-13T01:50:28.749Z,-5.70
2022-12-13T01:51:36.897Z,-5.70
2022-12-13T01:52:39.978Z,-5.80
2022-12-13T01:53:43.114Z,-5.80
2022-12-13T01:54:48.278Z,-5.80
2022-12-13T01:55:54.456Z,-5.70
2022-12-13T01:57:00.909Z,-5.80
2022-12-13T01:58:05.226Z,-5.80
2022-12-13T01:59:09.049Z,-5.80
2022-12-13T02:00:11.664Z,-5.90
2022-12-13T02:01:13.216Z,-5.90
2022-12-13T02:02:15.774Z,-5.90
2022-12-13T02:03:20.827Z,-5.80
2022-12-13T02:04:30.573Z,-5.80
2022-12-13T02:05:41.341Z,-5.90
2022-12-13T02:06:45.173Z,-5.90
2022-12-13T02:07:48.329Z,-5.90
2022-12-13T02:08:50.194Z,-5.90
2022-12-13T02:09:59.162Z,-5.90
2022-12-13T02:11:02.784Z,-5.90
2022-12-13T02:12:04.661Z,-5.90
2022-12-13T02:13:06.345Z,-5.90
2022-12-13T02:14:10.137Z,-5.90
2022-12-13T02:15:15.220Z,-6.00
2022-12-13T02:16:43.158Z,-6.00
2022-12-13T02:18:00.095Z,-5.90
2022-12-13T02:19:04.511Z,-5.90
2022-12-13T02:20:21.815Z,-6.00
2022-12-13T02:21:29.965Z,-6.00
2022-12-13T02:22:50.294Z,-6.00
2022-12-13T02:24:11.141Z,-6.00
2022-12-13T02:25:40.853Z,-6.00
2022-12-13T02:27:00.738Z,-6.10
2022-12-13T02:28:30.369Z,-6.10
2022-12-13T02:30:12.930Z,-6.10
2022-12-13T02:31:24.743Z,-6.20
2022-12-13T02:32:49.309Z,-6.20
2022-12-13T02:34:07.462Z,-6.10
2022-12-13T02:35:18.925Z,-6.10
2022-12-13T02:36:29.695Z,-6.10
2022-12-13T02:38:05.187Z,-6.10
2022-12-13T02:39:34.201Z,-6.10
2022-12-13T02:40:46.841Z,-6.10
2022-12-13T02:41:50.926Z,-6.10
2022-12-13T02:43:23.401Z,-6.10
2022-12-13T02:44:33.199Z,-6.10
2022-12-13T02:45:40.253Z,-6.00
2022-12-13T02:46:48.950Z,-6.00
2022-12-13T02:47:54.618Z,-6.10
2022-12-13T02:48:57.458Z,-6.00
2022-12-13T02:50:03.062Z,-6.00
2022-12-13T02:51:06.930Z,-6.00
2022-12-13T02:52:12.725Z,-5.90
2022-12-13T02:53:15.985Z,-5.90
2022-12-13T02:54:17.675Z,-6.00
2022-12-13T02:55:25.198Z,-6.00
2022-12-13T02:56:32.064Z,-6.00
2022-12-13T02:57:39.180Z,-6.00
2022-12-13T02:58:47.473Z,-6.00
2022-12-13T02:59:52.541Z,-5.90
2022-12-13T03:01:29.164Z,-5.90
2022-12-13T03:02:49.052Z,-5.90
2022-12-13T03:04:01.615Z,-5.90
2022-12-13T03:05:57.251Z,-6.00
2022-12-13T03:07:19.282Z,-6.00
2022-12-13T03:08:49.377Z,-6.10
2022-12-13T03:10:15.302Z,-6.10
2022-12-13T03:11:20.113Z,-6.10
2022-12-13T03:12:53.265Z,-6.10
2022-12-13T03:14:02.162Z,-6.10
2022-12-13T03:15:15.944Z,-6.00
2022-12-13T03:16:38.059Z,-6.00
2022-12-13T03:17:56.172Z,-6.00
2022-12-13T03:19:00.768Z,-6.00
2022-12-13T03:20:03.826Z,-5.90
2022-12-13T03:21:14.982Z,-5.90
2022-12-13T03:22:17.173Z,-6.00
2022-12-13T03:23:19.727Z,-6.00
2022-12-13T03:24:21.747Z,-6.00
2022-12-13T03:25:32.096Z,-6.00
2022-12-13T03:26:35.140Z,-6.00
2022-12-13T03:27:36.635Z,-6.00
2022-12-13T03:28:39.401Z,-6.00
2022-12-13T03:29:40.887Z,-5.90
2022-12-13T03:30:42.554Z,-5.90
2022-12-13T03:31:44.008Z,-5.80
2022-12-13T03:32:45.798Z,-5.70
2022-12-13T03:33:47.364Z,-5.70
2022-12-13T03:34:53.370Z,-5.80
2022-12-13T03:36:02.984Z,-5.80
2022-12-13T03:37:05.014Z,-5.90
2022-12-13T03:38:06.495Z,-5.80
2022-12-13T03:39:07.959Z,-5.90
2022-12-13T03:40:09.988Z,-5.90
2022-12-13T03:41:14.967Z,-5.80
2022-12-13T03:42:17.747Z,-5.80
2022-12-13T03:43:21.638Z,-5.80
2022-12-13T03:44:24.213Z,-5.80
2022-12-13T03:45:33.096Z,-5.60
2022-12-13T03:46:34.802Z,-5.60
2022-12-13T03:47:36.559Z,-5.60
2022-12-13T03:48:38.772Z,-5.70
2022-12-13T03:49:40.157Z,-5.70
2022-12-13T03:50:41.626Z,-5.70
2022-12-13T03:51:43.385Z,-5.80
2022-12-13T03:52:45.146Z,-5.70
2022-12-13T03:53:46.891Z,-5.80
2022-12-13T03:54:48.322Z,-5.70
2022-12-13T03:55:49.726Z,-5.80
2022-12-13T03:56:51.219Z,-5.70
2022-12-13T03:57:52.611Z,-5.70
2022-12-13T03:58:54.131Z,-5.70
2022-12-13T03:59:55.582Z,-5.70
2022-12-13T04:00:56.982Z,-5.70
2022-12-13T04:01:58.840Z,-5.70
2022-12-13T04:03:00.414Z,-5.70
2022-12-13T04:04:02.007Z,-5.70
2022-12-13T04:05:03.524Z,-5.70
2022-12-13T04:06:05.717Z,-5.70
2022-12-13T04:07:22.404Z,-5.70
2022-12-13T04:08:24.310Z,-5.60
2022-12-13T04:09:25.801Z,-5.60
2022-12-13T04:10:27.832Z,-5.60
2022-12-13T04:11:48.046Z,-5.60
2022-12-13T04:13:08.276Z,-5.60
2022-12-13T04:14:11.793Z,-5.60
2022-12-13T04:15:13.896Z,-5.60
2022-12-13T04:16:15.838Z,-5.70
2022-12-13T04:17:17.327Z,-5.70
2022-12-13T04:18:19.525Z,-5.70
2022-12-13T04:19:23.665Z,-5.70
2022-12-13T04:20:25.892Z,-5.80
2022-12-13T04:21:27.272Z,-5.80
2022-12-13T04:22:29.443Z,-5.80
2022-12-13T04:23:31.035Z,-5.80
2022-12-13T04:24:32.545Z,-5.70
2022-12-13T04:25:34.374Z,-5.80
2022-12-13T04:26:36.158Z,-5.80
2022-12-13T04:27:38.118Z,-5.80
2022-12-13T04:28:40.026Z,-5.80
2022-12-13T04:29:41.632Z,-5.90
2022-12-13T04:30:43.041Z,-5.80
2022-12-13T04:31:44.501Z,-5.80
2022-12-13T04:32:45.966Z,-5.80
2022-12-13T04:33:47.634Z,-5.80
2022-12-13T04:34:49.082Z,-5.80
2022-12-13T04:35:51.170Z,-5.80
2022-12-13T04:36:52.569Z,-5.90
2022-12-13T04:37:54.258Z,-5.90
2022-12-13T04:38:55.752Z,-5.80
2022-12-13T04:40:02.246Z,-5.80
2022-12-13T04:41:08.535Z,-5.80
2022-12-13T04:42:10.129Z,-5.80
2022-12-13T04:43:11.664Z,-5.80
2022-12-13T04:44:28.794Z,-5.80
2022-12-13T04:45:31.582Z,-5.80
2022-12-13T04:46:33.763Z,-5.80
2022-12-13T04:47:35.249Z,-5.80
2022-12-13T04:48:36.995Z,-5.90
2022-12-13T04:49:38.364Z,-5.90
2022-12-13T04:50:39.836Z,-6.00
2022-12-13T04:51:41.270Z,-6.00
2022-12-13T04:52:48.932Z,-6.00
2022-12-13T04:53:51.277Z,-6.00
2022-12-13T04:54:55.700Z,-6.00
2022-12-13T04:55:58.071Z,-6.00
2022-12-13T04:56:59.878Z,-6.10
2022-12-13T04:58:03.523Z,-6.10
2022-12-13T04:59:05.299Z,-6.10
2022-12-13T05:00:09.862Z,-6.20
2022-12-13T05:01:11.666Z,-6.20
2022-12-13T05:02:13.471Z,-6.20
2022-12-13T05:03:25.825Z,-6.30
2022-12-13T05:04:32.387Z,-6.30
2022-12-13T05:05:34.546Z,-6.20
2022-12-13T05:06:36.093Z,-6.30
2022-12-13T05:07:42.186Z,-6.40
2022-12-13T05:08:45.091Z,-6.40
2022-12-13T05:09:46.586Z,-6.40
2022-12-13T05:10:48.161Z,-6.40
2022-12-13T05:11:49.713Z,-6.40
2022-12-13T05:12:51.123Z,-6.40
2022-12-13T05:13:52.585Z,-6.50
2022-12-13T05:14:54.489Z,-6.50
2022-12-13T05:16:01.177Z,-6.50
2022-12-13T05:17:02.776Z,-6.50
2022-12-13T05:18:10.288Z,-6.60
2022-12-13T05:19:12.224Z,-6.60
2022-12-13T05:20:13.668Z,-6.70
2022-12-13T05:21:15.302Z,-6.70
2022-12-13T05:22:20.441Z,-6.80
2022-12-13T05:23:25.104Z,-6.80
2022-12-13T05:24:26.568Z,-6.80
2022-12-13T05:25:28.354Z,-6.80
2022-12-13T05:26:30.174Z,-6.90
2022-12-13T05:27:31.650Z,-6.90
2022-12-13T05:28:33.684Z,-7.00
2022-12-13T05:29:37.292Z,-7.00
2022-12-13T05:30:40.056Z,-7.10
2022-12-13T05:31:41.520Z,-7.10
2022-12-13T05:32:44.850Z,-7.10
2022-12-13T05:33:46.459Z,-7.10
2022-12-13T05:34:48.326Z,-7.20
2022-12-13T05:35:49.952Z,-7.20
2022-12-13T05:36:51.853Z,-7.20
2022-12-13T05:37:55.070Z,-7.20
2022-12-13T05:38:56.978Z,-7.00
2022-12-13T05:39:58.717Z,-6.90
2022-12-13T05:41:00.255Z,-7.00
2022-12-13T05:42:02.844Z,-7.10
2022-12-13T05:43:04.457Z,-7.10
2022-12-13T05:44:23.559Z,-7.20
2022-12-13T05:45:25.462Z,-7.20
2022-12-13T05:46:27.085Z,-7.20
2022-12-13T05:47:28.517Z,-7.30
2022-12-13T05:48:30.429Z,-7.30
2022-12-13T05:49:32.335Z,-7.30
2022-12-13T05:50:33.916Z,-7.40
2022-12-13T05:51:35.547Z,-7.30
2022-12-13T05:52:37.263Z,-7.40
2022-12-13T05:53:40.410Z,-7.40
2022-12-13T05:54:42.859Z,-7.40
2022-12-13T05:55:44.686Z,-7.40
2022-12-13T05:56:46.196Z,-7.40
2022-12-13T05:57:50.453Z,-7.30
2022-12-13T05:58:54.198Z,-7.40
2022-12-13T05:59:56.847Z,-7.30
2022-12-13T06:01:15.095Z,-7.30
2022-12-13T06:02:21.459Z,-7.30
2022-12-13T06:03:23.305Z,-7.20
2022-12-13T06:04:24.896Z,-7.20
2022-12-13T06:05:26.432Z,-7.10
2022-12-13T06:06:28.731Z,-7.00
2022-12-13T06:07:30.204Z,-7.10
2022-12-13T06:08:31.809Z,-7.10
2022-12-13T06:09:33.444Z,-7.10
2022-12-13T06:10:41.887Z,-7.10
2022-12-13T06:11:43.620Z,-7.10
2022-12-13T06:12:45.132Z,-7.00
2022-12-13T06:13:51.287Z,-7.00
2022-12-13T06:14:53.177Z,-7.00
2022-12-13T06:16:04.850Z,-7.00
2022-12-13T06:17:06.652Z,-6.90
2022-12-13T06:18:08.382Z,-6.90
2022-12-13T06:19:09.777Z,-6.90
2022-12-13T06:20:23.219Z,-6.80
2022-12-13T06:21:26.039Z,-6.80
2022-12-13T06:22:28.123Z,-6.80
2022-12-13T06:23:31.021Z,-6.70
2022-12-13T06:24:32.490Z,-6.60
2022-12-13T06:25:34.416Z,-6.70
2022-12-13T06:26:36.305Z,-6.70
2022-12-13T06:27:37.728Z,-6.60
2022-12-13T06:28:39.427Z,-6.60
2022-12-13T06:29:41.127Z,-6.50
2022-12-13T06:30:43.002Z,-6.50
2022-12-13T06:31:44.563Z,-6.40
2022-12-13T06:32:49.991Z,-6.40
2022-12-13T06:33:51.639Z,-6.40
2022-12-13T06:34:53.054Z,-6.40
2022-12-13T06:35:59.225Z,-6.40
2022-12-13T06:37:01.237Z,-6.50
2022-12-13T06:38:03.717Z,-6.50
2022-12-13T06:39:15.607Z,-6.50
2022-12-13T06:40:22.866Z,-6.50
2022-12-13T06:41:30.547Z,-6.40
2022-12-13T06:42:33.562Z,-6.30
2022-12-13T06:43:35.305Z,-6.30
2022-12-13T06:44:37.441Z,-6.40
2022-12-13T06:45:40.714Z,-6.40
2022-12-13T06:46:42.941Z,-6.40
2022-12-13T06:47:44.351Z,-6.50
2022-12-13T06:48:45.942Z,-6.50
2022-12-13T06:49:47.543Z,-6.50
2022-12-13T06:50:48.916Z,-6.50
2022-12-13T06:51:51.061Z,-6.40
2022-12-13T06:52:52.496Z,-6.40
2022-12-13T06:53:53.914Z,-6.40
2022-12-13T06:54:59.745Z,-6.40
2022-12-13T06:56:14.938Z,-6.40
2022-12-13T06:57:16.621Z,-6.40
2022-12-13T06:58:18.007Z,-6.40
2022-12-13T06:59:19.428Z,-6.40
2022-12-13T07:00:22.147Z,-6.50
2022-12-13T07:01:25.178Z,-6.50
2022-12-13T07:02:26.823Z,-6.50
2022-12-13T07:03:29.320Z,-6.50
2022-12-13T07:04:31.620Z,-6.50
2022-12-13T07:05:33.079Z,-6.50
2022-12-13T07:06:35.213Z,-6.50
2022-12-13T07:07:36.948Z,-6.60
2022-12-13T07:08:38.596Z,-6.50
2022-12-13T07:09:40.416Z,-6.50
2022-12-13T07:10:42.097Z,-6.50
2022-12-13T07:11:47.088Z,-6.40
2022-12-13T07:12:53.170Z,-6.40
2022-12-13T07:13:55.403Z,-6.40
2022-12-13T07:14:56.779Z,-6.40
2022-12-13T07:16:01.025Z,-6.40
2022-12-13T07:17:03.759Z,-6.30
2022-12-13T07:18:05.433Z,-6.30
2022-12-13T07:19:22.675Z,-6.30
2022-12-13T07:20:24.689Z,-6.30
2022-12-13T07:21:27.488Z,-6.30
2022-12-13T07:22:29.226Z,-6.30
2022-12-13T07:23:37.391Z,-6.30
2022-12-13T07:24:39.041Z,-6.30
2022-12-13T07:25:41.244Z,-6.30
2022-12-13T07:26:42.709Z,-6.20
2022-12-13T07:27:44.113Z,-6.20
2022-12-13T07:28:52.896Z,-6.20
2022-12-13T07:29:57.943Z,-6.20
2022-12-13T07:31:04.396Z,-6.10
2022-12-13T07:32:06.041Z,-6.00
2022-12-13T07:33:07.502Z,-5.90
2022-12-13T07:34:14.142Z,-6.00
2022-12-13T07:35:16.936Z,-6.00
2022-12-13T07:36:21.025Z,-6.10
2022-12-13T07:37:30.002Z,-6.00
2022-12-13T07:38:35.883Z,-6.00
2022-12-13T07:39:37.778Z,-6.00
2022-12-13T07:40:40.732Z,-6.00
2022-12-13T07:41:42.418Z,-6.10
2022-12-13T07:42:50.385Z,-6.00
2022-12-13T07:43:54.983Z,-6.00
2022-12-13T07:44:57.417Z,-6.00
2022-12-13T07:46:00.368Z,-6.00
2022-12-13T07:47:01.902Z,-6.00
2022-12-13T07:48:05.651Z,-6.00
2022-12-13T07:49:07.023Z,-5.90
2022-12-13T07:50:24.588Z,-5.90
2022-12-13T07:51:27.229Z,-5.90
2022-12-13T07:52:28.761Z,-5.90
2022-12-13T07:53:33.422Z,-5.90
2022-12-13T07:54:35.332Z,-5.80
2022-12-13T07:55:38.360Z,-5.80
2022-12-13T07:56:40.260Z,-5.80
2022-12-13T07:57:41.731Z,-5.90
2022-12-13T07:58:44.064Z,-5.90
2022-12-13T07:59:45.556Z,-6.00
2022-12-13T08:00:47.185Z,-5.90
2022-12-13T08:01:48.690Z,-5.80
2022-12-13T08:02:50.562Z,-5.80
2022-12-13T08:03:52.268Z,-5.80
2022-12-13T08:04:54.391Z,-5.80
2022-12-13T08:06:11.346Z,-5.90
2022-12-13T08:07:12.829Z,-5.80
2022-12-13T08:08:15.012Z,-5.90
2022-12-13T08:09:16.408Z,-5.90
2022-12-13T08:10:18.594Z,-5.90
2022-12-13T08:11:19.997Z,-5.90
2022-12-13T08:12:22.466Z,-5.90
2022-12-13T08:13:24.393Z,-5.90
2022-12-13T08:14:26.406Z,-5.90
2022-12-13T08:15:28.000Z,-5.90
2022-12-13T08:16:30.506Z,-5.90
2022-12-13T08:17:32.082Z,-5.90
2022-12-13T08:18:33.878Z,-5.70
2022-12-13T08:19:35.421Z,-5.80
2022-12-13T08:20:37.679Z,-5.70
2022-12-13T08:22:01.231Z,-5.70
2022-12-13T08:23:03.307Z,-5.70
2022-12-13T08:24:07.219Z,-5.70
2022-12-13T08:25:10.569Z,-5.70
2022-12-13T08:26:12.098Z,-5.70
2022-12-13T08:27:13.524Z,-5.70
2022-12-13T08:28:15.391Z,-5.70
2022-12-13T08:29:23.372Z,-5.70
2022-12-13T08:30:35.157Z,-5.60
2022-12-13T08:31:38.069Z,-5.60
2022-12-13T08:32:39.703Z,-5.60
2022-12-13T08:33:43.575Z,-5.50
2022-12-13T08:34:45.962Z,-5.60
2022-12-13T08:35:47.947Z,-5.50
2022-12-13T08:36:49.594Z,-5.50
2022-12-13T08:37:51.501Z,-5.40
2022-12-13T08:38:56.334Z,-5.30
2022-12-13T08:39:57.709Z,-5.30
2022-12-13T08:40:59.598Z,-5.20
2022-12-13T08:42:14.822Z,-5.20
2022-12-13T08:43:24.575Z,-5.10
2022-12-13T08:44:26.546Z,-5.00
2022-12-13T08:45:28.554Z,-5.00
2022-12-13T08:46:30.002Z,-5.00
2022-12-13T08:47:33.530Z,-4.90
2022-12-13T08:48:43.786Z,-4.90
2022-12-13T08:49:46.174Z,-4.90
2022-12-13T08:50:47.825Z,-4.90
2022-12-13T08:51:49.364Z,-4.90
2022-12-13T08:52:52.206Z,-4.70
2022-12-13T08:53:53.948Z,-4.70
2022-12-13T08:55:14.789Z,-4.60
2022-12-13T08:56:17.350Z,-4.70
2022-12-13T08:57:18.922Z,-4.70
2022-12-13T08:58:20.285Z,-4.80
2022-12-13T08:59:25.282Z,-4.80
2022-12-13T09:00:27.067Z,-4.70
2022-12-13T09:01:28.524Z,-4.50
2022-12-13T09:02:30.191Z,-4.50
2022-12-13T09:03:39.908Z,-4.50
2022-12-13T09:04:42.259Z,-4.40
2022-12-13T09:05:44.231Z,-4.00
2022-12-13T09:06:45.955Z,-3.90
2022-12-13T09:07:47.815Z,-4.00
2022-12-13T09:08:51.478Z,-4.00
2022-12-13T09:09:54.750Z,-4.00
2022-12-13T09:11:11.345Z,-4.00
2022-12-13T09:12:30.256Z,-4.00
2022-12-13T09:13:35.295Z,-4.00
2022-12-13T09:14:46.987Z,-4.30
2022-12-13T09:15:49.019Z,-4.30
2022-12-13T09:16:51.693Z,-4.30
2022-12-13T09:17:54.387Z,-4.20
2022-12-13T09:18:56.412Z,-4.30
2022-12-13T09:19:58.890Z,-4.50
2022-12-13T09:21:11.218Z,-4.60
2022-12-13T09:22:14.767Z,-4.70
2022-12-13T09:23:23.404Z,-4.80
2022-12-13T09:24:26.184Z,-4.80
2022-12-13T09:25:27.581Z,-4.80
2022-12-13T09:26:29.121Z,-5.00
2022-12-13T09:27:40.205Z,-5.10
2022-12-13T09:28:42.769Z,-5.10
2022-12-13T09:29:44.451Z,-5.00
2022-12-13T09:30:45.871Z,-5.00
2022-12-13T09:31:52.924Z,-4.90
2022-12-13T09:32:56.164Z,-4.80
2022-12-13T09:33:57.586Z,-4.80
2022-12-13T09:34:59.709Z,-4.60
2022-12-13T09:36:05.866Z,-4.50
2022-12-13T09:37:08.988Z,-4.40
2022-12-13T09:38:10.470Z,-4.30
2022-12-13T09:39:12.199Z,-4.20
2022-12-13T09:40:25.752Z,-4.10
2022-12-13T09:41:34.028Z,-4.00
2022-12-13T09:42:47.986Z,-3.90
2022-12-13T09:43:55.396Z,-3.80
2022-12-13T09:45:06.389Z,-3.70
2022-12-13T09:46:44.809Z,-3.70
2022-12-13T09:47:48.813Z,-3.80
2022-12-13T09:48:53.112Z,-4.00
2022-12-13T09:50:28.074Z,-4.10
2022-12-13T09:51:43.008Z,-4.40
2022-12-13T09:52:47.204Z,-4.40
2022-12-13T09:53:51.003Z,-4.50
2022-12-13T09:54:55.678Z,-4.60
2022-12-13T09:56:10.873Z,-4.60
2022-12-13T09:57:30.896Z,-4.60
2022-12-13T09:58:34.281Z,-4.70
2022-12-13T09:59:36.044Z,-4.70
2022-12-13T10:00:38.521Z,-4.70
2022-12-13T10:01:40.753Z,-4.80
2022-12-13T10:02:57.952Z,-4.70
2022-12-13T10:04:01.345Z,-4.70
2022-12-13T10:05:21.618Z,-4.70
2022-12-13T10:06:28.928Z,-4.70
2022-12-13T10:07:30.428Z,-4.70
2022-12-13T10:08:44.971Z,-4.80
2022-12-13T10:09:47.435Z,-4.80
2022-12-13T10:10:52.977Z,-4.80
2022-12-13T10:11:54.760Z,-4.70
2022-12-13T10:13:28.696Z,-4.70
2022-12-13T10:14:39.678Z,-4.60
2022-12-13T10:15:46.526Z,-4.60
2022-12-13T10:16:53.446Z,-4.50
2022-12-13T10:17:55.996Z,-4.40
2022-12-13T10:18:57.681Z,-4.40
2022-12-13T10:19:59.284Z,-4.40
2022-12-13T10:21:22.462Z,-4.50
2022-12-13T10:22:24.212Z,-4.50
2022-12-13T10:23:52.458Z,-4.50
2022-12-13T10:24:47.462Z,-4.60
2022-12-13T10:25:55.241Z,-4.60
2022-12-13T10:27:13.697Z,-4.50
2022-12-13T10:28:17.840Z,-4.50
2022-12-13T10:29:19.990Z,-4.50
2022-12-13T10:30:28.433Z,-4.50
2022-12-13T10:31:44.406Z,-4.60
2022-12-13T10:32:59.084Z,-4.50
2022-12-13T10:34:00.780Z,-4.40
2022-12-13T10:35:35.105Z,-4.50
2022-12-13T10:36:41.471Z,-4.30
2022-12-13T10:37:42.864Z,-4.30
2022-12-13T10:38:46.160Z,-4.30
2022-12-13T10:39:48.092Z,-4.20
2022-12-13T10:40:49.644Z,-4.30
2022-12-13T10:42:04.118Z,-4.30
2022-12-13T10:43:30.475Z,-4.20
2022-12-13T10:44:32.484Z,-4.20
2022-12-13T10:45:34.002Z,-4.20
2022-12-13T10:46:38.259Z,-4.20
2022-12-13T10:47:44.404Z,-4.10
2022-12-13T10:48:52.524Z,-4.10
2022-12-13T10:50:03.740Z,-4.10
2022-12-13T10:51:09.225Z,-4.00
2022-12-13T10:52:31.497Z,-3.90
2022-12-13T10:53:41.333Z,-4.10
2022-12-13T10:54:50.049Z,-4.10
2022-12-13T10:55:56.104Z,-4.00
2022-12-13T10:57:04.276Z,-3.90
2022-12-13T10:58:09.702Z,-3.90
2022-12-13T10:59:38.692Z,-3.90
2022-12-13T11:00:44.759Z,-4.00
2022-12-13T11:01:46.650Z,-3.90
2022-12-13T11:02:55.024Z,-3.90
2022-12-13T11:04:05.331Z,-3.90
2022-12-13T11:05:37.463Z,-3.90
2022-12-13T11:06:44.485Z,-3.90
2022-12-13T11:07:46.950Z,-4.00
2022-12-13T11:08:48.494Z,-3.90
2022-12-13T11:09:52.715Z,-4.00
2022-12-13T11:11:05.218Z,-4.10
2022-12-13T11:12:20.981Z,-4.10
2022-12-13T11:13:30.036Z,-4.00
2022-12-13T11:14:40.414Z,-3.90
2022-12-13T11:15:45.222Z,-3.90
2022-12-13T11:16:56.919Z,-3.80
2022-12-13T11:18:18.544Z,-3.70
2022-12-13T11:19:48.484Z,-3.70
2022-12-13T11:21:01.667Z,-3.80
2022-12-13T11:22:04.130Z,-3.80
2022-12-13T11:23:30.280Z,-3.90
2022-12-13T11:24:35.874Z,-3.80
2022-12-13T11:25:41.591Z,-3.80
2022-12-13T11:26:48.816Z,-3.70
2022-12-13T11:28:27.079Z,-3.60
2022-12-13T11:29:56.597Z,-3.60
2022-12-13T11:31:22.260Z,-3.60
2022-12-13T11:32:49.455Z,-3.80
2022-12-13T11:34:03.233Z,-3.80
2022-12-13T11:35:04.880Z,-3.80
2022-12-13T11:36:26.578Z,-3.80
2022-12-13T11:37:42.420Z,-3.70
2022-12-13T11:39:01.581Z,-3.70
2022-12-13T11:40:20.694Z,-3.70
2022-12-13T11:41:33.239Z,-3.60
2022-12-13T11:43:12.104Z,-3.70
2022-12-13T11:44:30.267Z,-3.50
2022-12-13T11:45:47.109Z,-3.60
2022-12-13T11:47:00.846Z,-3.60
2022-12-13T11:48:22.012Z,-3.60
2022-12-13T11:49:37.181Z,-3.60
2022-12-13T11:50:46.106Z,-3.40
2022-12-13T11:51:53.754Z,-3.30
2022-12-13T11:53:00.272Z,-3.30
2022-12-13T11:54:23.860Z,-3.30
2022-12-13T11:55:40.253Z,-3.20
2022-12-13T11:56:44.038Z,-3.20
2022-12-13T11:58:16.457Z,-3.30
2022-12-13T11:59:45.685Z,-3.30
2022-12-13T12:01:03.055Z,-3.00
2022-12-13T12:02:33.105Z,-3.00
2022-12-13T12:03:34.998Z,-3.10
2022-12-13T12:04:48.906Z,-3.20
2022-12-13T12:06:10.557Z,-3.20
2022-12-13T12:08:42.627Z,-3.20
2022-12-13T12:10:03.296Z,-3.30
2022-12-13T12:11:08.468Z,-3.20
2022-12-13T12:12:36.362Z,-3.20
2022-12-13T12:13:50.800Z,-3.30
2022-12-13T12:15:05.037Z,-3.40
2022-12-13T12:16:38.811Z,-3.50
2022-12-13T12:17:42.159Z,-3.50
2022-12-13T12:18:44.182Z,-3.60
2022-12-13T12:19:49.085Z,-3.60
2022-12-13T12:21:02.209Z,-3.60
2022-12-13T12:22:22.316Z,-3.60
2022-12-13T12:24:01.706Z,-3.60
2022-12-13T12:25:27.125Z,-3.60
2022-12-13T12:27:22.287Z,-3.60
2022-12-13T12:29:01.321Z,-3.70
2022-12-13T12:30:28.460Z,-3.70
2022-12-13T12:32:04.112Z,-3.70
2022-12-13T12:33:28.504Z,-3.70
2022-12-13T12:34:36.829Z,-3.60
2022-12-13T12:36:09.195Z,-3.60
2022-12-13T12:37:19.480Z,-3.60
2022-12-13T12:38:34.379Z,-3.60
2022-12-13T12:40:05.852Z,-3.70
2022-12-13T12:41:33.729Z,-3.80
2022-12-13T12:43:13.266Z,-3.80
2022-12-13T12:44:22.085Z,-3.90
2022-12-13T12:48:56.459Z,-3.90
2022-12-13T12:50:12.671Z,-3.80
2022-12-13T12:51:22.872Z,-3.90
2022-12-13T12:52:43.665Z,-3.80
2022-12-13T12:54:08.205Z,-3.80
2022-12-13T12:55:30.635Z,-3.80
2022-12-13T12:57:00.622Z,-3.70
2022-12-13T12:58:20.370Z,-3.70
2022-12-13T13:00:07.003Z,-3.70
2022-12-13T13:01:43.912Z,-3.70
2022-12-13T13:03:01.424Z,-3.60
2022-12-13T13:04:08.801Z,-3.50
2022-12-13T13:05:36.171Z,-3.50
2022-12-13T13:07:03.996Z,-3.50
2022-12-13T13:08:38.276Z,-3.50
2022-12-13T13:09:40.861Z,-3.30
2022-12-13T13:10:49.767Z,-3.20
2022-12-13T13:11:57.640Z,-3.10
2022-12-13T13:13:11.440Z,-3.00
2022-12-13T13:14:33.741Z,-3.20
2022-12-13T13:15:41.247Z,-3.30
2022-12-13T13:16:42.970Z,-3.20
2022-12-13T13:17:45.857Z,-3.20
2022-12-13T13:18:52.519Z,-3.20
2022-12-13T13:20:01.571Z,-3.30
2022-12-13T13:21:30.989Z,-3.30
2022-12-13T13:22:42.840Z,-3.30
2022-12-13T13:23:44.726Z,-3.40
2022-12-13T13:25:00.763Z,-3.40
2022-12-13T13:26:26.713Z,-3.50
2022-12-13T13:27:30.263Z,-3.60
2022-12-13T13:28:31.921Z,-3.50
2022-12-13T13:29:35.754Z,-3.50
2022-12-13T13:30:37.467Z,-3.40
2022-12-13T13:32:12.704Z,-3.20
2022-12-13T13:33:57.296Z,-3.20
2022-12-13T13:35:33.333Z,-3.20
2022-12-13T13:36:41.189Z,-3.00
2022-12-13T13:37:48.075Z,-2.90
2022-12-13T13:38:52.292Z,-2.80
2022-12-13T13:39:59.519Z,-2.70
2022-12-13T13:41:40.044Z,-2.70
2022-12-13T13:43:06.446Z,-2.90
2022-12-13T13:44:34.185Z,-3.10
2022-12-13T13:46:02.470Z,-3.00
2022-12-13T13:47:19.780Z,-2.90
2022-12-13T13:48:53.538Z,-2.80
2022-12-13T13:50:13.274Z,-2.80
2022-12-13T13:51:21.388Z,-2.90
2022-12-13T13:52:26.194Z,-3.00
2022-12-13T13:53:36.788Z,-3.00
2022-12-13T13:54:56.235Z,-3.10
2022-12-13T13:56:35.996Z,-3.00
2022-12-13T13:58:21.590Z,-2.90
2022-12-13T13:59:47.015Z,-2.80
2022-12-13T14:01:25.575Z,-2.90
2022-12-13T14:03:33.468Z,-3.00
2022-12-13T14:05:15.343Z,-2.90
2022-12-13T14:06:48.358Z,-3.00
2022-12-13T14:07:59.213Z,-2.90
2022-12-13T14:09:22.043Z,-2.90
2022-12-13T14:10:31.243Z,-2.90
2022-12-13T14:11:53.550Z,-2.90
2022-12-13T14:13:41.437Z,-3.10
2022-12-13T14:15:23.720Z,-3.20
2022-12-13T14:16:49.410Z,-3.10
2022-12-13T14:18:02.924Z,-3.10
2022-12-13T14:19:41.851Z,-3.10
2022-12-13T14:20:53.176Z,-3.20
2022-12-13T14:22:05.994Z,-3.20
2022-12-13T14:23:44.679Z,-3.30
2022-12-13T14:24:49.437Z,-3.30
2022-12-13T14:25:58.913Z,-3.30
2022-12-13T14:27:19.602Z,-3.20
2022-12-13T14:28:27.206Z,-3.20
2022-12-13T14:29:37.348Z,-3.20
2022-12-13T14:30:48.315Z,-3.20
2022-12-13T14:31:59.472Z,-3.20
2022-12-13T14:33:01.081Z,-3.20
2022-12-13T14:34:04.537Z,-3.30
2022-12-13T14:35:25.792Z,-3.30
2022-12-13T14:36:32.384Z,-3.30
2022-12-13T14:37:38.288Z,-3.30
2022-12-13T14:38:40.159Z,-3.30
2022-12-13T14:39:45.198Z,-3.40
2022-12-13T14:41:06.049Z,-3.40
2022-12-13T14:42:30.249Z,-3.50